sensor_id;sensor_type;location;lat;lon;timestamp;temperature;humidity
65770;DHT22;52512;47.650;8.578;2022-08-19T00:01:25;19.80;99.90
65770;DHT22;52512;47.650;8.578;2022-08-19T00:03:52;19.80;99.90
65770;DHT22;52512;47.650;8.578;2022-08-19T00:06:18;19.80;99.90
65770;DHT22;52512;47.650;8.578;2022-08-19T00:08:43;19.80;99.90
65770;DHT22;52512;47.650;8.578;2022-08-19T00:11:10;19.80;99.90
65770;DHT22;52512;47.650;8.578;2022-08-19T00:13:36;19.80;99.90
65770;DHT22;52512;47.650;8.578;2022-08-19T00:16:03;19.80;99.90
65770;DHT22;52512;47.650;8.578;2022-08-19T00:18:31;19.80;99.90
65770;DHT22;52512;47.650;8.578;2022-08-19T00:20:57;19.80;99.90
65770;DHT22;52512;47.650;8.578;2022-08-19T00:23:25;19.80;99.90
65770;DHT22;52512;47.650;8.578;2022-08-19T00:25:50;19.70;99.90
65770;DHT22;52512;47.650;8.578;2022-08-19T00:28:17;19.70;99.90
65770;DHT22;52512;47.650;8.578;2022-08-19T00:30:43;19.70;99.90
65770;DHT22;52512;47.650;8.578;2022-08-19T00:33:09;19.60;99.90
65770;DHT22;52512;47.650;8.578;2022-08-19T00:35:35;19.70;99.90
65770;DHT22;52512;47.650;8.578;2022-08-19T00:38:01;19.70;99.90
65770;DHT22;52512;47.650;8.578;2022-08-19T00:40:26;19.70;99.90
65770;DHT22;52512;47.650;8.578;2022-08-19T00:42:52;19.60;99.90
65770;DHT22;52512;47.650;8.578;2022-08-19T00:45:23;19.60;99.90
65770;DHT22;52512;47.650;8.578;2022-08-19T00:47:48;19.70;99.90
65770;DHT22;52512;47.650;8.578;2022-08-19T00:50:17;19.70;99.90
65770;DHT22;52512;47.650;8.578;2022-08-19T00:52:46;19.70;99.90
65770;DHT22;52512;47.650;8.578;2022-08-19T00:55:17;19.70;99.90
65770;DHT22;52512;47.650;8.578;2022-08-19T00:57:47;19.60;99.90
65770;DHT22;52512;47.650;8.578;2022-08-19T01:00:16;19.60;99.90
65770;DHT22;52512;47.650;8.578;2022-08-19T01:02:42;19.60;99.90
65770;DHT22;52512;47.650;8.578;2022-08-19T01:05:12;19.60;99.90
65770;DHT22;52512;47.650;8.578;2022-08-19T01:07:40;19.60;99.90
65770;DHT22;52512;47.650;8.578;2022-08-19T01:10:08;19.60;99.90
65770;DHT22;52512;47.650;8.578;2022-08-19T01:12:36;19.60;99.90
65770;DHT22;52512;47.650;8.578;2022-08-19T01:15:02;19.60;99.90
65770;DHT22;52512;47.650;8.578;2022-08-19T01:17:28;19.50;99.90
65770;DHT22;52512;47.650;8.578;2022-08-19T01:19:54;19.60;99.90
65770;DHT22;52512;47.650;8.578;2022-08-19T01:22:38;19.50;99.90
65770;DHT22;52512;47.650;8.578;2022-08-19T01:25:05;19.50;99.90
65770;DHT22;52512;47.650;8.578;2022-08-19T01:27:39;19.50;99.90
65770;DHT22;52512;47.650;8.578;2022-08-19T01:30:07;19.50;99.90
65770;DHT22;52512;47.650;8.578;2022-08-19T01:32:33;19.50;99.90
65770;DHT22;52512;47.650;8.578;2022-08-19T01:34:58;19.50;99.90
65770;DHT22;52512;47.650;8.578;2022-08-19T01:37:27;19.50;99.90
65770;DHT22;52512;47.650;8.578;2022-08-19T01:39:53;19.50;99.90
65770;DHT22;52512;47.650;8.578;2022-08-19T01:42:19;19.50;99.90
65770;DHT22;52512;47.650;8.578;2022-08-19T01:44:45;19.50;99.90
65770;DHT22;52512;47.650;8.578;2022-08-19T01:47:11;19.50;99.90
65770;DHT22;52512;47.650;8.578;2022-08-19T01:49:36;19.50;99.90
65770;DHT22;52512;47.650;8.578;2022-08-19T01:52:03;19.50;99.90
65770;DHT22;52512;47.650;8.578;2022-08-19T01:54:29;19.50;99.90
65770;DHT22;52512;47.650;8.578;2022-08-19T01:57:01;19.50;99.90
65770;DHT22;52512;47.650;8.578;2022-08-19T01:59:27;19.50;99.90
65770;DHT22;52512;47.650;8.578;2022-08-19T02:01:53;19.50;99.90
65770;DHT22;52512;47.650;8.578;2022-08-19T02:04:19;19.50;99.90
65770;DHT22;52512;47.650;8.578;2022-08-19T02:06:46;19.50;99.90
65770;DHT22;52512;47.650;8.578;2022-08-19T02:09:11;19.50;99.90
65770;DHT22;52512;47.650;8.578;2022-08-19T02:11:37;19.50;99.90
65770;DHT22;52512;47.650;8.578;2022-08-19T02:14:05;19.50;99.90
65770;DHT22;52512;47.650;8.578;2022-08-19T02:16:32;19.50;99.90
65770;DHT22;52512;47.650;8.578;2022-08-19T02:18:58;19.50;99.90
65770;DHT22;52512;47.650;8.578;2022-08-19T02:21:27;19.50;99.90
65770;DHT22;52512;47.650;8.578;2022-08-19T02:23:54;19.50;99.90
65770;DHT22;52512;47.650;8.578;2022-08-19T02:26:21;19.50;99.90
65770;DHT22;52512;47.650;8.578;2022-08-19T02:28:47;19.50;99.90
65770;DHT22;52512;47.650;8.578;2022-08-19T02:31:17;19.50;99.90
65770;DHT22;52512;47.650;8.578;2022-08-19T02:33:44;19.50;99.90
65770;DHT22;52512;47.650;8.578;2022-08-19T02:36:10;19.40;99.90
65770;DHT22;52512;47.650;8.578;2022-08-19T02:38:37;19.40;99.90
65770;DHT22;52512;47.650;8.578;2022-08-19T02:41:07;19.40;99.90
65770;DHT22;52512;47.650;8.578;2022-08-19T02:43:36;19.40;99.90
65770;DHT22;52512;47.650;8.578;2022-08-19T02:46:15;19.40;99.90
65770;DHT22;52512;47.650;8.578;2022-08-19T02:48:50;19.30;99.90
65770;DHT22;52512;47.650;8.578;2022-08-19T02:51:25;19.30;99.90
65770;DHT22;52512;47.650;8.578;2022-08-19T02:53:51;19.30;99.90
65770;DHT22;52512;47.650;8.578;2022-08-19T02:56:18;19.40;99.90
65770;DHT22;52512;47.650;8.578;2022-08-19T02:58:44;19.40;99.90
65770;DHT22;52512;47.650;8.578;2022-08-19T03:01:10;19.30;99.90
65770;DHT22;52512;47.650;8.578;2022-08-19T03:03:37;19.30;99.90
65770;DHT22;52512;47.650;8.578;2022-08-19T03:06:09;19.40;99.90
65770;DHT22;52512;47.650;8.578;2022-08-19T03:08:36;19.40;99.90
65770;DHT22;52512;47.650;8.578;2022-08-19T03:11:03;19.40;99.90
65770;DHT22;52512;47.650;8.578;2022-08-19T03:13:29;19.40;99.90
65770;DHT22;52512;47.650;8.578;2022-08-19T03:15:54;19.40;99.90
65770;DHT22;52512;47.650;8.578;2022-08-19T03:18:20;19.40;99.90
65770;DHT22;52512;47.650;8.578;2022-08-19T03:20:51;19.40;99.90
65770;DHT22;52512;47.650;8.578;2022-08-19T03:23:21;19.30;99.90
65770;DHT22;52512;47.650;8.578;2022-08-19T03:25:48;19.30;99.90
65770;DHT22;52512;47.650;8.578;2022-08-19T03:28:15;19.30;99.90
65770;DHT22;52512;47.650;8.578;2022-08-19T03:30:53;19.30;99.90
65770;DHT22;52512;47.650;8.578;2022-08-19T03:33:22;19.30;99.90
65770;DHT22;52512;47.650;8.578;2022-08-19T03:36:41;19.30;99.90
65770;DHT22;52512;47.650;8.578;2022-08-19T03:38:52;19.30;99.90
65770;DHT22;52512;47.650;8.578;2022-08-19T03:41:23;19.30;99.90
65770;DHT22;52512;47.650;8.578;2022-08-19T03:43:49;19.30;99.90
65770;DHT22;52512;47.650;8.578;2022-08-19T03:46:22;19.30;99.90
65770;DHT22;52512;47.650;8.578;2022-08-19T03:48:51;19.30;99.90
65770;DHT22;52512;47.650;8.578;2022-08-19T03:51:27;19.30;99.90
65770;DHT22;52512;47.650;8.578;2022-08-19T03:53:54;19.30;99.90
65770;DHT22;52512;47.650;8.578;2022-08-19T03:56:21;19.30;99.90
65770;DHT22;52512;47.650;8.578;2022-08-19T03:58:47;19.30;99.90
65770;DHT22;52512;47.650;8.578;2022-08-19T04:01:16;19.30;99.90
65770;DHT22;52512;47.650;8.578;2022-08-19T04:03:43;19.30;99.90
65770;DHT22;52512;47.650;8.578;2022-08-19T04:06:14;19.30;99.90
65770;DHT22;52512;47.650;8.578;2022-08-19T04:08:41;19.20;99.90
65770;DHT22;52512;47.650;8.578;2022-08-19T04:11:22;19.30;99.90
65770;DHT22;52512;47.650;8.578;2022-08-19T04:13:49;19.20;99.90
65770;DHT22;52512;47.650;8.578;2022-08-19T04:16:17;19.20;99.90
65770;DHT22;52512;47.650;8.578;2022-08-19T04:18:44;19.20;99.90
65770;DHT22;52512;47.650;8.578;2022-08-19T04:21:18;19.10;99.90
65770;DHT22;52512;47.650;8.578;2022-08-19T04:23:45;19.10;99.90
65770;DHT22;52512;47.650;8.578;2022-08-19T04:26:20;19.10;99.90
65770;DHT22;52512;47.650;8.578;2022-08-19T04:28:46;19.10;99.90
65770;DHT22;52512;47.650;8.578;2022-08-19T04:31:21;19.00;99.90
65770;DHT22;52512;47.650;8.578;2022-08-19T04:33:47;19.10;99.90
65770;DHT22;52512;47.650;8.578;2022-08-19T04:36:21;19.10;99.90
65770;DHT22;52512;47.650;8.578;2022-08-19T04:38:53;19.00;99.90
65770;DHT22;52512;47.650;8.578;2022-08-19T04:41:18;19.10;99.90
65770;DHT22;52512;47.650;8.578;2022-08-19T04:44:04;19.10;99.90
65770;DHT22;52512;47.650;8.578;2022-08-19T04:46:30;19.00;99.90
65770;DHT22;52512;47.650;8.578;2022-08-19T04:48:58;19.00;99.90
65770;DHT22;52512;47.650;8.578;2022-08-19T04:51:23;19.00;99.90
65770;DHT22;52512;47.650;8.578;2022-08-19T04:53:49;19.00;99.90
65770;DHT22;52512;47.650;8.578;2022-08-19T04:56:16;19.00;99.90
65770;DHT22;52512;47.650;8.578;2022-08-19T04:58:44;19.00;99.90
65770;DHT22;52512;47.650;8.578;2022-08-19T05:01:17;19.00;99.90
65770;DHT22;52512;47.650;8.578;2022-08-19T05:03:43;19.00;99.90
65770;DHT22;52512;47.650;8.578;2022-08-19T05:06:11;19.00;99.90
65770;DHT22;52512;47.650;8.578;2022-08-19T05:08:39;19.00;99.90
65770;DHT22;52512;47.650;8.578;2022-08-19T05:11:20;19.00;99.90
65770;DHT22;52512;47.650;8.578;2022-08-19T05:13:48;19.00;99.90
65770;DHT22;52512;47.650;8.578;2022-08-19T05:16:16;18.90;99.90
65770;DHT22;52512;47.650;8.578;2022-08-19T05:18:43;18.90;99.90
65770;DHT22;52512;47.650;8.578;2022-08-19T05:21:28;19.00;99.90
65770;DHT22;52512;47.650;8.578;2022-08-19T05:24:14;18.90;99.90
65770;DHT22;52512;47.650;8.578;2022-08-19T05:26:42;19.00;99.90
65770;DHT22;52512;47.650;8.578;2022-08-19T05:29:09;19.00;99.90
65770;DHT22;52512;47.650;8.578;2022-08-19T05:31:36;19.00;99.90
65770;DHT22;52512;47.650;8.578;2022-08-19T05:34:04;19.00;99.90
65770;DHT22;52512;47.650;8.578;2022-08-19T05:36:35;18.90;99.90
65770;DHT22;52512;47.650;8.578;2022-08-19T05:39:02;18.90;99.90
65770;DHT22;52512;47.650;8.578;2022-08-19T05:41:29;19.00;99.90
65770;DHT22;52512;47.650;8.578;2022-08-19T05:44:01;19.00;99.90
65770;DHT22;52512;47.650;8.578;2022-08-19T05:46:27;18.90;99.90
65770;DHT22;52512;47.650;8.578;2022-08-19T05:48:53;18.90;99.90
65770;DHT22;52512;47.650;8.578;2022-08-19T05:51:22;18.90;99.90
65770;DHT22;52512;47.650;8.578;2022-08-19T05:53:49;19.00;99.90
65770;DHT22;52512;47.650;8.578;2022-08-19T05:56:16;18.90;99.90
65770;DHT22;52512;47.650;8.578;2022-08-19T05:58:42;18.90;99.90
65770;DHT22;52512;47.650;8.578;2022-08-19T06:01:13;18.80;99.90
65770;DHT22;52512;47.650;8.578;2022-08-19T06:03:40;18.90;99.90
65770;DHT22;52512;47.650;8.578;2022-08-19T06:06:07;18.90;99.90
65770;DHT22;52512;47.650;8.578;2022-08-19T06:08:35;18.90;99.90
65770;DHT22;52512;47.650;8.578;2022-08-19T06:11:37;18.90;99.90
65770;DHT22;52512;47.650;8.578;2022-08-19T06:14:13;18.90;99.90
65770;DHT22;52512;47.650;8.578;2022-08-19T06:16:40;18.90;99.90
65770;DHT22;52512;47.650;8.578;2022-08-19T06:19:10;18.90;99.90
65770;DHT22;52512;47.650;8.578;2022-08-19T06:21:37;19.00;99.90
65770;DHT22;52512;47.650;8.578;2022-08-19T06:24:08;18.90;99.90
65770;DHT22;52512;47.650;8.578;2022-08-19T06:26:36;18.90;99.90
65770;DHT22;52512;47.650;8.578;2022-08-19T06:29:07;19.00;99.90
65770;DHT22;52512;47.650;8.578;2022-08-19T06:31:33;18.90;99.90
65770;DHT22;52512;47.650;8.578;2022-08-19T06:34:04;18.90;99.90
65770;DHT22;52512;47.650;8.578;2022-08-19T06:36:36;18.90;99.90
65770;DHT22;52512;47.650;8.578;2022-08-19T06:39:12;18.80;99.90
65770;DHT22;52512;47.650;8.578;2022-08-19T06:41:40;18.80;99.90
65770;DHT22;52512;47.650;8.578;2022-08-19T06:44:06;18.80;99.90
65770;DHT22;52512;47.650;8.578;2022-08-19T06:46:32;18.80;99.90
65770;DHT22;52512;47.650;8.578;2022-08-19T06:48:58;18.80;99.90
65770;DHT22;52512;47.650;8.578;2022-08-19T06:51:24;18.80;99.90
65770;DHT22;52512;47.650;8.578;2022-08-19T06:53:53;18.80;99.90
65770;DHT22;52512;47.650;8.578;2022-08-19T06:56:23;18.80;99.90
65770;DHT22;52512;47.650;8.578;2022-08-19T06:58:50;18.80;99.90
65770;DHT22;52512;47.650;8.578;2022-08-19T07:01:18;18.80;99.90
65770;DHT22;52512;47.650;8.578;2022-08-19T07:03:44;18.80;99.90
65770;DHT22;52512;47.650;8.578;2022-08-19T07:06:13;18.80;99.90
65770;DHT22;52512;47.650;8.578;2022-08-19T07:08:43;18.80;99.90
65770;DHT22;52512;47.650;8.578;2022-08-19T07:11:11;18.80;99.90
65770;DHT22;52512;47.650;8.578;2022-08-19T07:13:39;18.90;99.90
65770;DHT22;52512;47.650;8.578;2022-08-19T07:16:06;18.80;99.90
65770;DHT22;52512;47.650;8.578;2022-08-19T07:18:33;18.80;99.90
65770;DHT22;52512;47.650;8.578;2022-08-19T07:21:11;18.80;99.90
65770;DHT22;52512;47.650;8.578;2022-08-19T07:23:37;18.80;99.90
65770;DHT22;52512;47.650;8.578;2022-08-19T07:28:39;18.80;99.90
65770;DHT22;52512;47.650;8.578;2022-08-19T07:31:06;18.80;99.90
65770;DHT22;52512;47.650;8.578;2022-08-19T07:33:33;18.80;99.90
65770;DHT22;52512;47.650;8.578;2022-08-19T07:35:59;18.90;99.90
65770;DHT22;52512;47.650;8.578;2022-08-19T07:38:25;18.90;99.90
65770;DHT22;52512;47.650;8.578;2022-08-19T07:40:51;18.90;99.90
65770;DHT22;52512;47.650;8.578;2022-08-19T07:43:17;18.90;99.90
65770;DHT22;52512;47.650;8.578;2022-08-19T07:45:48;18.90;99.90
65770;DHT22;52512;47.650;8.578;2022-08-19T07:48:14;18.90;99.90
65770;DHT22;52512;47.650;8.578;2022-08-19T07:50:39;18.90;99.90
65770;DHT22;52512;47.650;8.578;2022-08-19T07:53:05;18.90;99.90
65770;DHT22;52512;47.650;8.578;2022-08-19T07:55:31;18.90;99.90
65770;DHT22;52512;47.650;8.578;2022-08-19T07:57:56;18.90;99.90
65770;DHT22;52512;47.650;8.578;2022-08-19T08:00:22;19.00;99.90
65770;DHT22;52512;47.650;8.578;2022-08-19T08:02:48;19.00;99.90
65770;DHT22;52512;47.650;8.578;2022-08-19T08:05:14;18.90;99.90
65770;DHT22;52512;47.650;8.578;2022-08-19T08:07:58;19.00;99.90
65770;DHT22;52512;47.650;8.578;2022-08-19T08:10:42;18.90;99.90
65770;DHT22;52512;47.650;8.578;2022-08-19T08:13:08;18.90;99.90
65770;DHT22;52512;47.650;8.578;2022-08-19T08:15:35;19.00;99.90
65770;DHT22;52512;47.650;8.578;2022-08-19T08:18:02;18.90;99.90
65770;DHT22;52512;47.650;8.578;2022-08-19T08:20:28;18.90;99.90
65770;DHT22;52512;47.650;8.578;2022-08-19T08:22:54;18.90;99.90
65770;DHT22;52512;47.650;8.578;2022-08-19T08:25:38;18.90;99.90
65770;DHT22;52512;47.650;8.578;2022-08-19T08:28:06;19.00;99.90
65770;DHT22;52512;47.650;8.578;2022-08-19T08:30:34;18.90;99.90
65770;DHT22;52512;47.650;8.578;2022-08-19T08:33:01;18.90;99.90
65770;DHT22;52512;47.650;8.578;2022-08-19T08:35:27;19.00;99.90
65770;DHT22;52512;47.650;8.578;2022-08-19T08:37:54;18.90;99.90
65770;DHT22;52512;47.650;8.578;2022-08-19T08:40:37;18.90;99.90
65770;DHT22;52512;47.650;8.578;2022-08-19T08:43:07;18.90;99.90
65770;DHT22;52512;47.650;8.578;2022-08-19T08:45:44;18.90;99.90
65770;DHT22;52512;47.650;8.578;2022-08-19T08:48:42;18.90;99.90
65770;DHT22;52512;47.650;8.578;2022-08-19T08:51:11;18.90;99.90
65770;DHT22;52512;47.650;8.578;2022-08-19T08:53:39;18.90;99.90
65770;DHT22;52512;47.650;8.578;2022-08-19T08:56:06;18.90;99.90
65770;DHT22;52512;47.650;8.578;2022-08-19T08:58:57;18.90;99.90
65770;DHT22;52512;47.650;8.578;2022-08-19T09:01:23;18.90;99.90
65770;DHT22;52512;47.650;8.578;2022-08-19T09:03:49;19.00;99.90
65770;DHT22;52512;47.650;8.578;2022-08-19T09:06:21;18.90;99.90
65770;DHT22;52512;47.650;8.578;2022-08-19T09:09:28;19.00;99.90
65770;DHT22;52512;47.650;8.578;2022-08-19T09:14:34;19.00;99.90
65770;DHT22;52512;47.650;8.578;2022-08-19T09:17:01;19.00;99.90
65770;DHT22;52512;47.650;8.578;2022-08-19T09:19:29;19.00;99.90
65770;DHT22;52512;47.650;8.578;2022-08-19T09:21:55;19.00;99.90
65770;DHT22;52512;47.650;8.578;2022-08-19T09:24:20;19.00;99.90
65770;DHT22;52512;47.650;8.578;2022-08-19T09:26:46;18.90;99.90
65770;DHT22;52512;47.650;8.578;2022-08-19T09:29:12;19.00;99.90
65770;DHT22;52512;47.650;8.578;2022-08-19T09:31:38;19.00;99.90
65770;DHT22;52512;47.650;8.578;2022-08-19T09:34:04;19.00;99.90
65770;DHT22;52512;47.650;8.578;2022-08-19T09:36:30;19.00;99.90
65770;DHT22;52512;47.650;8.578;2022-08-19T09:38:59;19.00;99.90
65770;DHT22;52512;47.650;8.578;2022-08-19T09:41:27;19.00;99.90
65770;DHT22;52512;47.650;8.578;2022-08-19T09:43:54;19.00;99.90
65770;DHT22;52512;47.650;8.578;2022-08-19T09:46:26;19.00;99.90
65770;DHT22;52512;47.650;8.578;2022-08-19T09:48:53;19.00;99.90
65770;DHT22;52512;47.650;8.578;2022-08-19T09:51:23;19.00;99.90
65770;DHT22;52512;47.650;8.578;2022-08-19T09:53:51;19.10;99.90
65770;DHT22;52512;47.650;8.578;2022-08-19T09:56:19;19.10;99.90
65770;DHT22;52512;47.650;8.578;2022-08-19T09:58:45;19.10;99.90
65770;DHT22;52512;47.650;8.578;2022-08-19T10:01:21;19.10;99.90
65770;DHT22;52512;47.650;8.578;2022-08-19T10:03:53;19.10;99.90
65770;DHT22;52512;47.650;8.578;2022-08-19T10:06:21;19.10;99.90
65770;DHT22;52512;47.650;8.578;2022-08-19T10:08:47;19.00;99.90
65770;DHT22;52512;47.650;8.578;2022-08-19T10:11:14;19.00;99.90
65770;DHT22;52512;47.650;8.578;2022-08-19T10:13:42;19.10;99.90
65770;DHT22;52512;47.650;8.578;2022-08-19T10:16:15;19.10;99.90
65770;DHT22;52512;47.650;8.578;2022-08-19T10:18:41;19.00;99.90
65770;DHT22;52512;47.650;8.578;2022-08-19T10:21:18;19.10;99.90
65770;DHT22;52512;47.650;8.578;2022-08-19T10:23:47;19.10;99.90
65770;DHT22;52512;47.650;8.578;2022-08-19T10:26:17;19.10;99.90
65770;DHT22;52512;47.650;8.578;2022-08-19T10:28:44;19.00;99.90
65770;DHT22;52512;47.650;8.578;2022-08-19T10:31:16;19.00;99.90
65770;DHT22;52512;47.650;8.578;2022-08-19T10:33:42;19.00;99.90
65770;DHT22;52512;47.650;8.578;2022-08-19T10:36:12;19.00;99.90
65770;DHT22;52512;47.650;8.578;2022-08-19T10:38:48;19.00;99.90
65770;DHT22;52512;47.650;8.578;2022-08-19T10:41:15;19.00;99.90
65770;DHT22;52512;47.650;8.578;2022-08-19T10:43:42;19.00;99.90
65770;DHT22;52512;47.650;8.578;2022-08-19T10:46:09;19.00;99.90
65770;DHT22;52512;47.650;8.578;2022-08-19T10:48:36;19.00;99.90
65770;DHT22;52512;47.650;8.578;2022-08-19T10:51:02;19.00;99.90
65770;DHT22;52512;47.650;8.578;2022-08-19T10:53:47;19.00;99.90
65770;DHT22;52512;47.650;8.578;2022-08-19T10:56:12;19.00;99.90
65770;DHT22;52512;47.650;8.578;2022-08-19T10:58:57;19.00;99.90
65770;DHT22;52512;47.650;8.578;2022-08-19T11:01:24;19.00;99.90
65770;DHT22;52512;47.650;8.578;2022-08-19T11:03:50;19.00;99.90
65770;DHT22;52512;47.650;8.578;2022-08-19T11:06:16;19.00;99.90
65770;DHT22;52512;47.650;8.578;2022-08-19T11:08:42;19.00;99.90
65770;DHT22;52512;47.650;8.578;2022-08-19T11:11:11;19.00;99.90
65770;DHT22;52512;47.650;8.578;2022-08-19T11:13:38;19.00;99.90
65770;DHT22;52512;47.650;8.578;2022-08-19T11:16:10;19.00;99.90
65770;DHT22;52512;47.650;8.578;2022-08-19T11:18:38;19.10;99.90
65770;DHT22;52512;47.650;8.578;2022-08-19T11:21:25;19.00;99.90
65770;DHT22;52512;47.650;8.578;2022-08-19T11:23:54;19.10;99.90
65770;DHT22;52512;47.650;8.578;2022-08-19T11:26:21;19.10;99.90
65770;DHT22;52512;47.650;8.578;2022-08-19T11:28:47;19.10;99.90
65770;DHT22;52512;47.650;8.578;2022-08-19T11:31:19;19.10;99.90
65770;DHT22;52512;47.650;8.578;2022-08-19T11:33:45;19.10;99.90
65770;DHT22;52512;47.650;8.578;2022-08-19T11:36:12;19.10;99.90
65770;DHT22;52512;47.650;8.578;2022-08-19T11:38:37;19.10;99.90
65770;DHT22;52512;47.650;8.578;2022-08-19T11:41:06;19.10;99.90
65770;DHT22;52512;47.650;8.578;2022-08-19T11:43:33;19.10;99.90
65770;DHT22;52512;47.650;8.578;2022-08-19T11:45:59;19.10;99.90
65770;DHT22;52512;47.650;8.578;2022-08-19T11:48:25;19.10;99.90
65770;DHT22;52512;47.650;8.578;2022-08-19T11:50:52;19.10;99.90
65770;DHT22;52512;47.650;8.578;2022-08-19T11:53:20;19.20;99.90
65770;DHT22;52512;47.650;8.578;2022-08-19T11:55:53;19.10;99.90
65770;DHT22;52512;47.650;8.578;2022-08-19T11:58:22;19.20;99.90
65770;DHT22;52512;47.650;8.578;2022-08-19T12:00:48;19.20;99.90
65770;DHT22;52512;47.650;8.578;2022-08-19T12:03:14;19.20;99.90
65770;DHT22;52512;47.650;8.578;2022-08-19T12:05:40;19.20;99.90
65770;DHT22;52512;47.650;8.578;2022-08-19T12:08:07;19.20;99.90
65770;DHT22;52512;47.650;8.578;2022-08-19T12:10:34;19.20;99.90
65770;DHT22;52512;47.650;8.578;2022-08-19T12:13:00;19.20;99.90
65770;DHT22;52512;47.650;8.578;2022-08-19T12:15:27;19.30;99.90
65770;DHT22;52512;47.650;8.578;2022-08-19T12:17:54;19.30;99.90
65770;DHT22;52512;47.650;8.578;2022-08-19T12:20:24;19.30;99.90
65770;DHT22;52512;47.650;8.578;2022-08-19T12:22:50;19.30;99.90
65770;DHT22;52512;47.650;8.578;2022-08-19T12:25:16;19.30;99.90
65770;DHT22;52512;47.650;8.578;2022-08-19T12:27:42;19.40;99.90
65770;DHT22;52512;47.650;8.578;2022-08-19T12:30:10;19.40;99.90
65770;DHT22;52512;47.650;8.578;2022-08-19T12:32:37;19.40;99.90
65770;DHT22;52512;47.650;8.578;2022-08-19T12:35:03;19.40;99.90
65770;DHT22;52512;47.650;8.578;2022-08-19T12:37:29;19.40;99.90
65770;DHT22;52512;47.650;8.578;2022-08-19T12:39:56;19.40;99.90
65770;DHT22;52512;47.650;8.578;2022-08-19T12:42:22;19.50;99.90
65770;DHT22;52512;47.650;8.578;2022-08-19T12:44:48;19.50;99.90
65770;DHT22;52512;47.650;8.578;2022-08-19T12:47:14;19.50;99.90
65770;DHT22;52512;47.650;8.578;2022-08-19T12:49:40;19.50;99.90
65770;DHT22;52512;47.650;8.578;2022-08-19T12:52:08;19.50;99.90
65770;DHT22;52512;47.650;8.578;2022-08-19T12:54:34;19.50;99.90
65770;DHT22;52512;47.650;8.578;2022-08-19T12:57:04;19.50;99.90
65770;DHT22;52512;47.650;8.578;2022-08-19T12:59:30;19.50;99.90
65770;DHT22;52512;47.650;8.578;2022-08-19T13:01:55;19.50;99.90
65770;DHT22;52512;47.650;8.578;2022-08-19T13:04:21;19.50;99.90
65770;DHT22;52512;47.650;8.578;2022-08-19T13:06:47;19.50;99.90
65770;DHT22;52512;47.650;8.578;2022-08-19T13:09:12;19.50;99.90
65770;DHT22;52512;47.650;8.578;2022-08-19T13:11:38;19.50;99.90
65770;DHT22;52512;47.650;8.578;2022-08-19T13:14:04;19.50;99.90
65770;DHT22;52512;47.650;8.578;2022-08-19T13:16:30;19.50;99.90
65770;DHT22;52512;47.650;8.578;2022-08-19T13:18:56;19.50;99.90
65770;DHT22;52512;47.650;8.578;2022-08-19T13:21:26;19.50;99.90
65770;DHT22;52512;47.650;8.578;2022-08-19T13:23:53;19.50;99.90
65770;DHT22;52512;47.650;8.578;2022-08-19T13:26:20;19.50;99.90
65770;DHT22;52512;47.650;8.578;2022-08-19T13:28:46;19.50;99.90
65770;DHT22;52512;47.650;8.578;2022-08-19T13:31:32;19.50;99.90
65770;DHT22;52512;47.650;8.578;2022-08-19T13:34:19;19.60;99.90
65770;DHT22;52512;47.650;8.578;2022-08-19T13:36:52;19.60;99.90
65770;DHT22;52512;47.650;8.578;2022-08-19T13:39:17;19.60;99.90
65770;DHT22;52512;47.650;8.578;2022-08-19T13:41:45;19.60;99.90
65770;DHT22;52512;47.650;8.578;2022-08-19T13:44:17;19.60;99.90
65770;DHT22;52512;47.650;8.578;2022-08-19T13:46:47;19.60;99.90
65770;DHT22;52512;47.650;8.578;2022-08-19T13:49:14;19.60;99.90
65770;DHT22;52512;47.650;8.578;2022-08-19T13:51:41;19.60;99.90
65770;DHT22;52512;47.650;8.578;2022-08-19T13:54:07;19.60;99.90
65770;DHT22;52512;47.650;8.578;2022-08-19T13:56:35;19.70;99.90
65770;DHT22;52512;47.650;8.578;2022-08-19T13:59:01;19.70;99.90
65770;DHT22;52512;47.650;8.578;2022-08-19T14:01:27;19.70;99.90
65770;DHT22;52512;47.650;8.578;2022-08-19T14:03:53;19.70;99.90
65770;DHT22;52512;47.650;8.578;2022-08-19T14:06:19;19.70;99.90
65770;DHT22;52512;47.650;8.578;2022-08-19T14:08:45;19.70;99.90
65770;DHT22;52512;47.650;8.578;2022-08-19T14:11:11;19.70;99.90
65770;DHT22;52512;47.650;8.578;2022-08-19T14:13:37;19.70;99.90
65770;DHT22;52512;47.650;8.578;2022-08-19T14:16:08;19.70;99.90
65770;DHT22;52512;47.650;8.578;2022-08-19T14:18:34;19.80;99.90
65770;DHT22;52512;47.650;8.578;2022-08-19T14:21:00;19.80;99.90
65770;DHT22;52512;47.650;8.578;2022-08-19T14:23:25;19.80;99.90
65770;DHT22;52512;47.650;8.578;2022-08-19T14:25:51;19.80;99.90
65770;DHT22;52512;47.650;8.578;2022-08-19T14:28:17;19.80;99.90
65770;DHT22;52512;47.650;8.578;2022-08-19T14:30:42;19.80;99.90
65770;DHT22;52512;47.650;8.578;2022-08-19T14:33:10;19.80;99.90
65770;DHT22;52512;47.650;8.578;2022-08-19T14:35:37;19.80;99.90
65770;DHT22;52512;47.650;8.578;2022-08-19T14:38:05;19.80;99.90
65770;DHT22;52512;47.650;8.578;2022-08-19T14:40:31;19.80;99.90
65770;DHT22;52512;47.650;8.578;2022-08-19T14:43:00;19.90;99.90
65770;DHT22;52512;47.650;8.578;2022-08-19T14:45:31;19.90;99.90
65770;DHT22;52512;47.650;8.578;2022-08-19T14:47:57;19.90;99.90
65770;DHT22;52512;47.650;8.578;2022-08-19T14:50:24;19.90;99.90
65770;DHT22;52512;47.650;8.578;2022-08-19T14:52:56;19.80;99.90
65770;DHT22;52512;47.650;8.578;2022-08-19T14:55:22;19.90;99.90
65770;DHT22;52512;47.650;8.578;2022-08-19T14:57:48;19.90;99.90
65770;DHT22;52512;47.650;8.578;2022-08-19T15:00:15;19.90;99.90
65770;DHT22;52512;47.650;8.578;2022-08-19T15:02:41;19.90;99.90
65770;DHT22;52512;47.650;8.578;2022-08-19T15:05:09;19.90;99.90
65770;DHT22;52512;47.650;8.578;2022-08-19T15:07:36;19.90;99.90
65770;DHT22;52512;47.650;8.578;2022-08-19T15:10:02;19.90;99.90
65770;DHT22;52512;47.650;8.578;2022-08-19T15:12:28;20.00;99.90
65770;DHT22;52512;47.650;8.578;2022-08-19T15:14:54;20.00;99.90
65770;DHT22;52512;47.650;8.578;2022-08-19T15:17:20;20.00;99.90
65770;DHT22;52512;47.650;8.578;2022-08-19T15:19:46;20.00;99.90
65770;DHT22;52512;47.650;8.578;2022-08-19T15:22:12;20.00;99.90
65770;DHT22;52512;47.650;8.578;2022-08-19T15:24:39;20.00;99.90
65770;DHT22;52512;47.650;8.578;2022-08-19T15:27:05;20.00;99.90
65770;DHT22;52512;47.650;8.578;2022-08-19T15:29:31;20.00;99.90
65770;DHT22;52512;47.650;8.578;2022-08-19T15:31:57;20.10;99.90
65770;DHT22;52512;47.650;8.578;2022-08-19T15:34:24;20.10;99.90
65770;DHT22;52512;47.650;8.578;2022-08-19T15:36:51;20.10;99.90
65770;DHT22;52512;47.650;8.578;2022-08-19T15:39:17;20.10;99.90
65770;DHT22;52512;47.650;8.578;2022-08-19T15:41:44;20.10;99.90
65770;DHT22;52512;47.650;8.578;2022-08-19T15:44:13;20.20;99.90